createdAt,value
2017-04-15T00:00:55.706Z,0.88
2017-04-15T00:01:59.528Z,0.68
2017-04-15T00:03:03.301Z,0.95
2017-04-15T00:04:07.344Z,0.83
2017-04-15T00:05:11.462Z,0.82
2017-04-15T00:06:16.542Z,1.02
2017-04-15T00:07:20.566Z,0.88
2017-04-15T00:08:24.207Z,0.83
2017-04-15T00:09:28.396Z,0.97
2017-04-15T00:10:32.483Z,0.72
2017-04-15T00:11:36.250Z,1.05
2017-04-15T00:12:40.220Z,1.03
2017-04-15T00:13:44.070Z,1.22
2017-04-15T00:14:47.993Z,1.47
2017-04-15T00:15:52.049Z,1.02
2017-04-15T00:16:56.307Z,1.33
2017-04-15T00:18:00.491Z,0.93
2017-04-15T00:19:04.286Z,0.83
2017-04-15T00:20:08.161Z,1.13
2017-04-15T00:21:11.972Z,1.30
2017-04-15T00:22:16.148Z,1.15
2017-04-15T00:23:20.227Z,0.92
2017-04-15T00:24:23.957Z,1.28
2017-04-15T00:25:28.491Z,1.02
2017-04-15T00:26:32.564Z,0.92
2017-04-15T00:27:36.451Z,1.22
2017-04-15T00:28:40.223Z,1.07
2017-04-15T00:29:43.421Z,1.53
2017-04-15T00:30:46.731Z,1.28
2017-04-15T00:31:49.992Z,1.03
2017-04-15T00:32:53.201Z,0.85
2017-04-15T00:33:57.159Z,1.20
2017-04-15T00:35:01.119Z,1.08
2017-04-15T00:36:04.860Z,1.37
2017-04-15T00:37:09.563Z,0.80
2017-04-15T00:38:13.558Z,1.13
2017-04-15T00:39:18.361Z,1.22
2017-04-15T00:40:22.365Z,0.87
2017-04-15T00:41:26.959Z,0.95
2017-04-15T00:42:30.618Z,1.20
2017-04-15T00:43:34.526Z,0.93
2017-04-15T00:44:38.393Z,0.80
2017-04-15T00:45:42.016Z,1.23
2017-04-15T00:46:46.271Z,0.70
2017-04-15T00:47:49.997Z,0.85
2017-04-15T00:48:53.694Z,1.07
2017-04-15T00:49:57.626Z,1.32
2017-04-15T00:51:01.875Z,1.32
2017-04-15T00:52:06.403Z,1.18
2017-04-15T00:53:10.205Z,1.08
2017-04-15T00:54:13.792Z,0.87
2017-04-15T00:55:17.740Z,1.15
2017-04-15T00:56:21.657Z,1.05
2017-04-15T00:57:26.106Z,0.93
2017-04-15T00:58:29.931Z,1.00
2017-04-15T00:59:33.797Z,1.15
2017-04-15T01:00:37.497Z,0.98
2017-04-15T01:01:41.702Z,0.98
2017-04-15T01:02:45.844Z,1.40
2017-04-15T01:03:50.925Z,1.30
2017-04-15T01:04:54.874Z,1.28
2017-04-15T01:05:58.544Z,0.93
2017-04-15T01:07:02.469Z,1.07
2017-04-15T01:08:06.090Z,0.92
2017-04-15T01:09:10.024Z,1.30
2017-04-15T01:10:13.955Z,1.30
2017-04-15T01:11:18.591Z,1.03
2017-04-15T01:12:22.583Z,1.10
2017-04-15T01:13:26.218Z,1.12
2017-04-15T01:14:29.831Z,0.93
2017-04-15T01:15:33.889Z,1.02
2017-04-15T01:16:37.823Z,1.05
2017-04-15T01:17:41.841Z,1.00
2017-04-15T01:18:45.774Z,1.10
2017-04-15T01:19:49.911Z,1.07
2017-04-15T01:20:53.031Z,1.17
2017-04-15T01:21:56.973Z,1.00
2017-04-15T01:23:01.857Z,0.90
2017-04-15T01:24:05.744Z,1.37
2017-04-15T01:25:09.809Z,0.90
2017-04-15T01:26:14.906Z,1.05
2017-04-15T01:27:19.023Z,1.03
2017-04-15T01:28:22.697Z,1.13
2017-04-15T01:29:26.626Z,1.00
2017-04-15T01:30:30.475Z,1.12
2017-04-15T01:31:34.201Z,0.88
2017-04-15T01:32:38.301Z,1.07
2017-04-15T01:33:42.307Z,0.70
2017-04-15T01:34:46.343Z,0.98
2017-04-15T01:35:50.305Z,0.93
2017-04-15T01:36:54.223Z,1.08
2017-04-15T01:37:58.434Z,0.98
2017-04-15T01:39:02.726Z,0.80
2017-04-15T01:40:06.627Z,0.80
2017-04-15T01:41:10.449Z,0.85
2017-04-15T01:42:14.625Z,0.82
2017-04-15T01:43:18.739Z,0.90
2017-04-15T01:44:22.414Z,1.18
2017-04-15T01:45:27.267Z,1.25
2017-04-15T01:46:31.046Z,1.10
2017-04-15T01:47:36.410Z,1.00
2017-04-15T01:48:40.297Z,1.15
2017-04-15T01:49:44.120Z,1.23
2017-04-15T01:50:47.849Z,1.43
2017-04-15T01:51:51.302Z,1.22
2017-04-15T01:52:55.577Z,1.42
2017-04-15T01:53:59.423Z,1.20
2017-04-15T01:55:03.261Z,1.30
2017-04-15T01:56:07.133Z,0.90
2017-04-15T01:57:10.740Z,1.30
2017-04-15T01:58:14.843Z,1.50
2017-04-15T01:59:18.664Z,1.63
2017-04-15T02:00:22.730Z,1.33
2017-04-15T02:01:26.476Z,1.20
2017-04-15T02:02:30.714Z,1.83
2017-04-15T02:03:34.640Z,1.90
2017-04-15T02:04:38.630Z,1.82
2017-04-15T02:05:42.784Z,1.65
2017-04-15T02:06:46.870Z,1.43
2017-04-15T02:07:50.554Z,1.55
2017-04-15T02:08:54.450Z,1.38
2017-04-15T02:09:58.396Z,1.52
2017-04-15T02:11:02.613Z,1.43
2017-04-15T02:12:06.785Z,1.40
2017-04-15T02:13:10.394Z,1.40
2017-04-15T02:14:14.488Z,1.45
2017-04-15T02:15:18.289Z,1.45
2017-04-15T02:16:22.274Z,1.23
2017-04-15T02:17:26.086Z,1.42
2017-04-15T02:18:30.097Z,1.03
2017-04-15T02:19:35.086Z,1.40
2017-04-15T02:20:38.592Z,1.70
2017-04-15T02:21:42.575Z,2.10
2017-04-15T02:22:46.618Z,1.67
2017-04-15T02:23:50.664Z,1.42
2017-04-15T02:24:54.534Z,1.55
2017-04-15T02:25:58.562Z,1.80
2017-04-15T02:27:03.299Z,1.75
2017-04-15T02:28:07.079Z,1.47
2017-04-15T02:29:10.958Z,1.48
2017-04-15T02:30:14.650Z,1.37
2017-04-15T02:31:18.851Z,1.90
2017-04-15T02:32:22.774Z,1.55
2017-04-15T02:33:26.671Z,1.68
2017-04-15T02:34:30.771Z,2.05
2017-04-15T02:35:34.779Z,1.83
2017-04-15T02:36:38.650Z,1.45
2017-04-15T02:37:42.881Z,1.52
2017-04-15T02:38:47.231Z,1.88
2017-04-15T02:39:51.172Z,2.13
2017-04-15T02:40:54.899Z,1.53
2017-04-15T02:41:58.738Z,1.38
2017-04-15T02:43:02.762Z,2.00
2017-04-15T02:44:07.282Z,2.33
2017-04-15T02:45:11.615Z,1.92
2017-04-15T02:46:15.167Z,2.27
2017-04-15T02:47:18.900Z,1.63
2017-04-15T02:48:22.677Z,1.75
2017-04-15T02:49:26.551Z,1.55
2017-04-15T02:50:30.529Z,2.13
2017-04-15T02:51:34.959Z,3.33
2017-04-15T02:52:38.991Z,2.37
2017-04-15T02:53:42.897Z,1.93
2017-04-15T02:54:47.284Z,1.73
2017-04-15T02:55:51.067Z,1.57
2017-04-15T02:56:55.178Z,1.83
2017-04-15T02:57:58.808Z,2.17
2017-04-15T02:59:02.889Z,1.87
2017-04-15T03:00:06.627Z,1.53
2017-04-15T03:01:10.775Z,1.60
2017-04-15T03:02:14.897Z,1.62
2017-04-15T03:03:18.997Z,1.58
2017-04-15T03:04:22.909Z,1.60
2017-04-15T03:05:27.284Z,1.35
2017-04-15T03:06:31.318Z,1.43
2017-04-15T03:07:35.158Z,1.28
2017-04-15T03:08:38.563Z,1.40
2017-04-15T03:09:42.707Z,1.30
2017-04-15T03:10:46.712Z,1.60
2017-04-15T03:11:50.790Z,1.37
2017-04-15T03:12:54.468Z,1.23
2017-04-15T03:13:58.511Z,1.40
2017-04-15T03:15:02.278Z,1.45
2017-04-15T03:16:06.124Z,1.55
2017-04-15T03:17:10.806Z,1.65
2017-04-15T03:18:15.023Z,1.52
2017-04-15T03:19:18.841Z,1.63
2017-04-15T03:20:22.615Z,1.48
2017-04-15T03:21:26.453Z,1.35
2017-04-15T03:22:30.590Z,1.48
2017-04-15T03:23:34.714Z,1.50
2017-04-15T03:24:38.678Z,1.58
2017-04-15T03:25:42.723Z,1.40
2017-04-15T03:26:46.491Z,1.78
2017-04-15T03:27:51.632Z,1.57
2017-04-15T03:28:55.540Z,1.47
2017-04-15T03:29:59.512Z,1.78
2017-04-15T03:31:03.411Z,1.23
2017-04-15T03:32:08.096Z,1.60
2017-04-15T03:33:11.695Z,1.68
2017-04-15T03:34:16.296Z,1.78
2017-04-15T03:35:20.282Z,2.08
2017-04-15T03:36:23.975Z,1.75
2017-04-15T03:37:27.670Z,1.30
2017-04-15T03:38:31.729Z,1.58
2017-04-15T03:39:36.377Z,1.68
2017-04-15T03:40:40.194Z,1.70
2017-04-15T03:41:43.714Z,1.52
2017-04-15T03:42:48.013Z,1.85
2017-04-15T03:43:52.397Z,2.03
2017-04-15T03:44:56.210Z,1.98
2017-04-15T03:45:59.994Z,2.10
2017-04-15T03:47:04.066Z,1.68
2017-04-15T03:48:07.688Z,1.65
2017-04-15T03:49:12.675Z,2.15
2017-04-15T03:50:16.736Z,2.12
2017-04-15T03:51:20.203Z,1.73
2017-04-15T03:52:24.033Z,1.73
2017-04-15T03:53:28.343Z,1.90
2017-04-15T03:54:32.505Z,1.83
2017-04-15T03:55:36.383Z,2.47
2017-04-15T03:56:40.421Z,2.10
2017-04-15T03:57:44.393Z,2.33
2017-04-15T03:58:48.579Z,3.42
2017-04-15T03:59:52.374Z,3.05
2017-04-15T04:00:56.264Z,2.45
2017-04-15T04:02:00.202Z,8.70
2017-04-15T04:03:04.765Z,3.07
2017-04-15T04:04:09.188Z,2.30
2017-04-15T04:05:13.210Z,2.55
2017-04-15T04:06:16.975Z,2.83
2017-04-15T04:07:20.908Z,2.30
2017-04-15T04:08:24.676Z,2.73
2017-04-15T04:09:28.735Z,3.33
2017-04-15T04:10:32.761Z,3.48
2017-04-15T04:11:36.620Z,4.52
2017-04-15T04:12:39.864Z,5.35
2017-04-15T04:13:43.828Z,5.08
2017-04-15T04:14:47.790Z,5.03
2017-04-15T04:15:51.680Z,4.95
2017-04-15T04:16:55.248Z,5.25
2017-04-15T04:17:59.034Z,5.10
2017-04-15T04:19:03.010Z,5.17
2017-04-15T04:20:06.787Z,5.15
2017-04-15T04:21:10.652Z,5.43
2017-04-15T04:22:14.636Z,5.47
2017-04-15T04:23:18.194Z,5.63
2017-04-15T04:24:22.065Z,5.93
2017-04-15T04:25:26.141Z,5.48
2017-04-15T04:26:30.325Z,4.80
2017-04-15T04:27:34.539Z,5.40
2017-04-15T04:28:39.171Z,6.32
2017-04-15T04:29:43.245Z,5.63
2017-04-15T04:30:47.164Z,5.93
2017-04-15T04:31:51.132Z,5.67
2017-04-15T04:32:54.897Z,5.60
2017-04-15T04:33:58.508Z,6.57
2017-04-15T04:35:02.206Z,6.73
2017-04-15T04:36:06.160Z,5.38
2017-04-15T04:37:09.993Z,5.22
2017-04-15T04:38:14.074Z,6.37
2017-04-15T04:39:17.850Z,5.15
2017-04-15T04:40:21.590Z,4.38
2017-04-15T04:41:29.064Z,4.27
2017-04-15T04:42:33.137Z,4.75
2017-04-15T04:43:36.668Z,4.42
2017-04-15T04:44:40.748Z,4.62
2017-04-15T04:45:44.689Z,4.25
2017-04-15T04:46:48.484Z,3.48
2017-04-15T04:47:52.266Z,4.32
2017-04-15T04:48:56.010Z,4.18
2017-04-15T04:49:59.986Z,3.88
2017-04-15T04:51:03.603Z,4.35
2017-04-15T04:52:07.122Z,3.90
2017-04-15T04:53:11.068Z,3.75
2017-04-15T04:54:14.647Z,3.28
2017-04-15T04:55:18.440Z,3.57
2017-04-15T04:56:22.435Z,3.42
2017-04-15T04:57:25.818Z,3.02
2017-04-15T04:58:30.450Z,3.52
2017-04-15T04:59:34.422Z,3.62
2017-04-15T05:00:38.826Z,4.53
2017-04-15T05:01:42.836Z,4.63
2017-04-15T05:02:46.913Z,4.03
2017-04-15T05:03:50.444Z,3.70
2017-04-15T05:04:55.412Z,3.85
2017-04-15T05:05:59.260Z,4.22
2017-04-15T05:07:03.300Z,4.30
2017-04-15T05:08:08.065Z,3.88
2017-04-15T05:09:12.824Z,3.78
2017-04-15T05:10:16.424Z,3.55
2017-04-15T05:11:19.918Z,3.65
2017-04-15T05:12:23.947Z,3.57
2017-04-15T05:13:27.700Z,3.15
2017-04-15T05:14:31.795Z,4.12
2017-04-15T05:15:35.717Z,4.15
2017-04-15T05:16:39.673Z,4.38
2017-04-15T05:17:43.505Z,3.82
2017-04-15T05:18:47.096Z,4.32
2017-04-15T05:19:51.277Z,3.72
2017-04-15T05:20:54.910Z,3.67
2017-04-15T05:21:58.668Z,4.60
2017-04-15T05:23:02.702Z,4.85
2017-04-15T05:24:06.369Z,3.85
2017-04-15T05:25:11.510Z,4.35
2017-04-15T05:26:15.079Z,4.67
2017-04-15T05:27:18.886Z,5.30
2017-04-15T05:28:22.367Z,5.20
2017-04-15T05:29:26.985Z,4.95
2017-04-15T05:30:30.951Z,3.98
2017-04-15T05:31:35.039Z,5.55
2017-04-15T05:32:38.779Z,6.33
2017-04-15T05:33:42.513Z,6.48
2017-04-15T05:34:46.542Z,6.07
2017-04-15T05:35:50.361Z,4.67
2017-04-15T05:36:54.107Z,6.92
2017-04-15T05:37:57.880Z,5.60
2017-04-15T05:39:01.930Z,6.15
2017-04-15T05:40:05.868Z,6.07
2017-04-15T05:41:09.482Z,8.45
2017-04-15T05:42:13.547Z,7.57
2017-04-15T05:43:17.196Z,8.55
2017-04-15T05:44:21.033Z,8.77
2017-04-15T05:45:25.024Z,9.18
2017-04-15T05:46:28.975Z,9.28
2017-04-15T05:47:32.919Z,8.83
2017-04-15T05:48:36.744Z,7.92
2017-04-15T05:49:40.457Z,9.38
2017-04-15T05:50:44.120Z,9.38
2017-04-15T05:51:48.271Z,8.15
2017-04-15T05:52:51.956Z,8.00
2017-04-15T05:53:55.559Z,8.43
2017-04-15T05:54:59.534Z,8.43
2017-04-15T05:56:03.417Z,9.55
2017-04-15T05:57:07.413Z,10.60
2017-04-15T05:58:11.042Z,10.73
2017-04-15T05:59:14.652Z,9.05
2017-04-15T06:00:18.465Z,11.72
2017-04-15T06:01:23.385Z,8.68
2017-04-15T06:02:26.834Z,11.28
2017-04-15T06:03:31.403Z,11.77
2017-04-15T06:04:35.459Z,10.55
2017-04-15T06:05:39.110Z,12.00
2017-04-15T06:06:42.881Z,11.00
2017-04-15T06:07:47.051Z,10.53
2017-04-15T06:08:50.686Z,10.23
2017-04-15T06:09:54.531Z,10.28
2017-04-15T06:10:58.016Z,9.08
2017-04-15T06:12:01.929Z,9.52
2017-04-15T06:13:05.803Z,10.18
2017-04-15T06:14:09.713Z,7.85
2017-04-15T06:15:14.122Z,7.77
2017-04-15T06:16:17.955Z,8.83
2017-04-15T06:17:21.708Z,9.90
2017-04-15T06:18:25.616Z,8.30
2017-04-15T06:19:29.364Z,8.95
2017-04-15T06:20:33.358Z,9.37
2017-04-15T06:21:38.055Z,9.93
2017-04-15T06:22:41.829Z,10.22
2017-04-15T06:23:46.454Z,9.03
2017-04-15T06:24:50.003Z,10.65
2017-04-15T06:25:53.823Z,9.82
2017-04-15T06:26:58.753Z,10.52
2017-04-15T06:28:02.239Z,12.05
2017-04-15T06:29:06.202Z,11.40
2017-04-15T06:30:11.756Z,10.75
2017-04-15T06:31:15.768Z,10.63
2017-04-15T06:32:19.615Z,10.82
2017-04-15T06:33:23.674Z,9.90
2017-04-15T06:34:27.658Z,10.02
2017-04-15T06:35:31.244Z,10.68
2017-04-15T06:36:35.344Z,10.48
2017-04-15T06:37:39.088Z,8.62
2017-04-15T06:38:42.727Z,10.13
2017-04-15T06:39:46.788Z,8.93
2017-04-15T06:40:50.892Z,10.38
2017-04-15T06:41:54.649Z,10.00
2017-04-15T06:42:58.481Z,9.85
2017-04-15T06:44:02.284Z,9.15
2017-04-15T06:45:07.197Z,11.73
2017-04-15T06:46:11.229Z,9.93
2017-04-15T06:47:15.408Z,8.93
2017-04-15T06:48:19.070Z,9.68
2017-04-15T06:49:22.875Z,9.70
2017-04-15T06:50:26.924Z,9.55
2017-04-15T06:51:30.795Z,10.67
2017-04-15T06:52:34.699Z,11.65
2017-04-15T06:53:39.154Z,11.68
2017-04-15T06:54:43.702Z,11.25
2017-04-15T06:55:47.434Z,11.58
2017-04-15T06:56:51.135Z,11.72
2017-04-15T06:57:54.836Z,12.53
2017-04-15T06:58:58.772Z,12.55
2017-04-15T07:00:02.465Z,12.92
2017-04-15T07:01:06.265Z,12.50
2017-04-15T07:02:10.527Z,12.43
2017-04-15T07:03:14.526Z,12.52
2017-04-15T07:04:18.421Z,12.48
2017-04-15T07:05:22.209Z,12.22
2017-04-15T07:06:26.424Z,10.17
2017-04-15T07:07:30.473Z,11.68
2017-04-15T07:08:34.567Z,11.10
2017-04-15T07:09:38.605Z,9.77
2017-04-15T07:10:43.083Z,12.40
2017-04-15T07:11:47.030Z,11.73
2017-04-15T07:12:51.831Z,11.85
2017-04-15T07:13:55.518Z,10.75
2017-04-15T07:14:59.287Z,10.43
2017-04-15T07:16:03.250Z,9.83
2017-04-15T07:17:07.120Z,9.77
2017-04-15T07:18:10.784Z,10.05
2017-04-15T07:19:14.284Z,9.47
2017-04-15T07:20:18.212Z,10.93
2017-04-15T07:21:21.954Z,8.47
2017-04-15T07:22:25.649Z,8.60
2017-04-15T07:23:29.645Z,8.58
2017-04-15T07:24:33.240Z,8.95
2017-04-15T07:25:36.735Z,7.78
2017-04-15T07:26:40.630Z,7.12
2017-04-15T07:27:44.526Z,8.05
2017-04-15T07:28:48.347Z,7.43
2017-04-15T07:29:52.293Z,6.83
2017-04-15T07:30:57.452Z,7.50
2017-04-15T07:32:01.167Z,8.25
2017-04-15T07:33:05.146Z,7.88
2017-04-15T07:34:08.842Z,8.48
2017-04-15T07:35:12.820Z,9.23
2017-04-15T07:36:16.339Z,8.05
2017-04-15T07:37:20.166Z,7.58
2017-04-15T07:38:24.200Z,8.27
2017-04-15T07:39:28.202Z,9.13
2017-04-15T07:40:32.349Z,9.80
2017-04-15T07:41:35.957Z,9.73
2017-04-15T07:42:39.585Z,7.13
2017-04-15T07:43:43.498Z,8.63
2017-04-15T07:44:47.502Z,10.73
2017-04-15T07:45:51.292Z,10.63
2017-04-15T07:46:55.079Z,10.95
2017-04-15T07:47:59.074Z,9.83
2017-04-15T07:49:02.891Z,9.97
2017-04-15T07:50:06.456Z,10.47
2017-04-15T07:51:10.195Z,9.68
2017-04-15T07:52:14.346Z,10.62
2017-04-15T07:53:17.878Z,10.15
2017-04-15T07:54:21.849Z,11.25
2017-04-15T07:55:25.524Z,12.17
2017-04-15T07:56:29.280Z,11.40
2017-04-15T07:58:45.829Z,12.75
2017-04-15T07:59:49.767Z,11.93
2017-04-15T08:00:53.390Z,11.92
2017-04-15T08:01:57.067Z,12.03
2017-04-15T08:03:00.598Z,12.17
2017-04-15T08:04:05.460Z,12.47
2017-04-15T08:05:09.342Z,11.77
2017-04-15T08:06:12.926Z,12.38
2017-04-15T08:07:16.837Z,8.82
2017-04-15T08:08:20.820Z,9.85
2017-04-15T08:09:24.562Z,9.87
2017-04-15T08:10:29.605Z,9.68
2017-04-15T08:11:33.068Z,10.28
2017-04-15T08:12:36.529Z,9.62
2017-04-15T08:13:40.446Z,12.18
2017-04-15T08:14:44.377Z,9.23
2017-04-15T08:15:48.890Z,10.65
2017-04-15T08:16:52.703Z,8.55
2017-04-15T08:17:56.334Z,9.17
2017-04-15T08:19:00.244Z,9.78
2017-04-15T08:20:04.331Z,10.02
2017-04-15T08:21:08.206Z,9.58
2017-04-15T08:22:12.137Z,8.97
2017-04-15T08:23:15.663Z,7.97
2017-04-15T08:24:20.132Z,8.32
2017-04-15T08:25:24.074Z,7.95
2017-04-15T08:26:27.926Z,8.70
2017-04-15T08:27:31.420Z,8.73
2017-04-15T08:28:35.232Z,8.13
2017-04-15T08:29:39.049Z,7.37
2017-04-15T08:30:43.064Z,8.18
2017-04-15T08:31:47.617Z,7.53
2017-04-15T08:32:51.535Z,8.83
2017-04-15T08:33:55.388Z,8.40
2017-04-15T08:34:59.166Z,7.67
2017-04-15T08:36:03.209Z,8.97
2017-04-15T08:37:07.051Z,7.87
2017-04-15T08:38:11.082Z,7.37
2017-04-15T08:39:14.853Z,6.55
2017-04-15T08:40:18.505Z,6.30
2017-04-15T08:41:22.386Z,6.42
2017-04-15T08:42:26.381Z,6.55
2017-04-15T08:43:30.195Z,6.53
2017-04-15T08:44:34.100Z,6.85
2017-04-15T08:45:37.990Z,6.73
2017-04-15T08:46:41.840Z,7.18
2017-04-15T08:47:46.084Z,6.12
2017-04-15T08:48:50.045Z,5.92
2017-04-15T08:49:53.850Z,4.58
2017-04-15T08:50:57.820Z,7.08
2017-04-15T08:52:01.789Z,6.47
2017-04-15T08:53:05.319Z,6.48
2017-04-15T08:54:08.886Z,6.73
2017-04-15T08:55:12.737Z,6.10
2017-04-15T08:56:16.513Z,7.13
2017-04-15T08:57:19.957Z,6.17
2017-04-15T08:58:23.396Z,6.88
2017-04-15T08:59:26.999Z,7.57
2017-04-15T09:00:31.071Z,7.33
2017-04-15T09:01:34.614Z,6.47
2017-04-15T09:02:38.581Z,6.90
2017-04-15T09:03:43.333Z,7.13
2017-04-15T09:04:46.981Z,6.60
2017-04-15T09:05:50.759Z,6.95
2017-04-15T09:06:54.426Z,6.52
2017-04-15T09:07:58.388Z,7.37
2017-04-15T09:09:02.162Z,6.70
2017-04-15T09:10:06.118Z,8.28
2017-04-15T09:11:10.086Z,7.67
2017-04-15T09:12:13.876Z,8.35
2017-04-15T09:13:17.801Z,8.85
2017-04-15T09:14:21.765Z,8.63
2017-04-15T09:15:25.628Z,8.83
2017-04-15T09:16:29.483Z,9.33
2017-04-15T09:17:33.535Z,9.50
2017-04-15T09:18:36.948Z,8.83
2017-04-15T09:19:40.879Z,9.10
2017-04-15T09:20:44.753Z,8.97
2017-04-15T09:21:48.653Z,8.95
2017-04-15T09:22:52.429Z,9.05
2017-04-15T09:23:56.190Z,9.80
2017-04-15T09:25:00.178Z,9.88
2017-04-15T09:26:03.786Z,9.23
2017-04-15T09:27:07.556Z,10.08
2017-04-15T09:28:11.515Z,10.25
2017-04-15T09:29:15.458Z,10.13
2017-04-15T09:30:19.281Z,10.05
2017-04-15T09:31:23.259Z,8.90
2017-04-15T09:32:27.931Z,9.92
2017-04-15T09:33:31.622Z,7.68
2017-04-15T09:34:36.012Z,9.02
2017-04-15T09:35:39.628Z,7.60
2017-04-15T09:36:43.546Z,7.68
2017-04-15T09:37:47.204Z,8.65
2017-04-15T09:38:50.764Z,8.15
2017-04-15T09:39:54.845Z,6.78
2017-04-15T09:40:59.043Z,7.82
2017-04-15T09:42:03.183Z,6.75
2017-04-15T09:43:06.837Z,7.75
2017-04-15T09:44:10.987Z,8.68
2017-04-15T09:45:15.138Z,7.05
2017-04-15T09:46:19.109Z,7.22
2017-04-15T09:47:22.800Z,7.22
2017-04-15T09:48:26.694Z,7.32
2017-04-15T09:49:30.650Z,8.77
2017-04-15T09:50:34.210Z,7.85
2017-04-15T09:51:37.954Z,10.55
2017-04-15T09:52:41.712Z,9.65
2017-04-15T09:53:45.676Z,9.95
2017-04-15T09:54:49.678Z,9.60
2017-04-15T09:55:53.264Z,10.03
2017-04-15T09:56:57.030Z,9.03
2017-04-15T09:58:00.729Z,9.33
2017-04-15T09:59:04.295Z,8.42
2017-04-15T10:00:08.193Z,7.30
2017-04-15T10:01:12.302Z,9.88
2017-04-15T10:02:16.295Z,8.43
2017-04-15T10:03:20.118Z,11.07
2017-04-15T10:04:24.034Z,13.70
2017-04-15T10:05:28.056Z,13.45
2017-04-15T10:06:32.228Z,17.03
2017-04-15T10:07:35.824Z,16.33
2017-04-15T10:08:39.854Z,16.42
2017-04-15T10:09:43.955Z,15.05
2017-04-15T10:10:47.947Z,14.68
2017-04-15T10:11:51.594Z,13.60
2017-04-15T10:12:56.357Z,14.93
2017-04-15T10:14:00.313Z,13.63
2017-04-15T10:15:04.179Z,12.25
2017-04-15T10:16:07.862Z,14.55
2017-04-15T10:17:12.294Z,17.15
2017-04-15T10:18:16.309Z,17.13
2017-04-15T10:19:19.744Z,20.83
2017-04-15T10:20:23.340Z,22.68
2017-04-15T10:21:27.267Z,21.52
2017-04-15T10:22:30.903Z,21.98
2017-04-15T10:23:35.163Z,21.90
2017-04-15T10:24:39.079Z,24.52
2017-04-15T10:25:43.494Z,23.12
2017-04-15T10:26:47.442Z,23.78
2017-04-15T10:27:51.439Z,23.18
2017-04-15T10:28:55.000Z,21.45
2017-04-15T10:29:58.875Z,21.63
2017-04-15T10:31:02.853Z,19.85
2017-04-15T10:32:06.817Z,18.35
2017-04-15T10:33:11.603Z,18.47
2017-04-15T10:34:15.464Z,18.65
2017-04-15T10:35:19.218Z,15.67
2017-04-15T10:36:22.916Z,14.63
2017-04-15T10:37:26.407Z,17.22
2017-04-15T10:38:30.186Z,16.20
2017-04-15T10:39:34.318Z,11.33
2017-04-15T10:40:37.890Z,13.38
2017-04-15T10:41:41.321Z,13.72
2017-04-15T10:42:45.197Z,12.03
2017-04-15T10:43:49.084Z,11.33
2017-04-15T10:44:53.019Z,12.58
2017-04-15T10:45:56.634Z,18.48
2017-04-15T10:47:00.687Z,17.85
2017-04-15T10:48:04.274Z,16.47
2017-04-15T10:49:08.045Z,16.25
2017-04-15T10:50:11.990Z,17.38
2017-04-15T10:51:15.960Z,16.02
2017-04-15T10:52:20.015Z,14.08
2017-04-15T10:53:23.566Z,14.95
2017-04-15T10:54:27.655Z,11.93
2017-04-15T10:55:31.310Z,13.82
2017-04-15T10:56:35.301Z,13.63
2017-04-15T10:57:39.223Z,14.07
2017-04-15T10:58:43.200Z,13.35
2017-04-15T10:59:47.071Z,12.20
2017-04-15T11:00:50.992Z,13.13
2017-04-15T11:01:54.917Z,15.32
2017-04-15T11:02:58.613Z,16.10
2017-04-15T11:04:02.314Z,16.52
2017-04-15T11:05:06.127Z,16.38
2017-04-15T11:06:09.833Z,12.25
2017-04-15T11:07:13.362Z,14.53
2017-04-15T11:08:17.421Z,14.55
2017-04-15T11:09:22.091Z,15.98
2017-04-15T11:10:26.009Z,15.50
2017-04-15T11:11:29.574Z,12.78
2017-04-15T11:12:33.399Z,13.43
2017-04-15T11:13:37.156Z,16.18
2017-04-15T11:14:41.100Z,15.75
2017-04-15T11:15:45.282Z,15.33
2017-04-15T11:16:48.736Z,16.37
2017-04-15T11:17:52.350Z,16.48
2017-04-15T11:18:56.282Z,15.12
2017-04-15T11:20:01.099Z,17.48
2017-04-15T11:21:04.535Z,14.27
2017-04-15T11:22:08.534Z,14.72
2017-04-15T11:23:12.227Z,14.22
2017-04-15T11:24:16.293Z,19.15
2017-04-15T11:25:20.253Z,17.83
2017-04-15T11:26:23.673Z,12.22
2017-04-15T11:27:27.358Z,15.40
2017-04-15T11:28:31.327Z,18.25
2017-04-15T11:29:35.061Z,15.23
2017-04-15T11:30:40.074Z,11.35
2017-04-15T11:31:44.021Z,15.23
2017-04-15T11:32:47.770Z,15.98
2017-04-15T11:33:52.567Z,15.23
2017-04-15T11:34:56.293Z,15.10
2017-04-15T11:36:00.169Z,15.78
2017-04-15T11:37:04.088Z,14.47
2017-04-15T11:38:07.934Z,16.97
2017-04-15T11:39:11.636Z,16.27
2017-04-15T11:40:15.142Z,16.67
2017-04-15T11:41:18.966Z,14.55
2017-04-15T11:42:22.597Z,16.12
2017-04-15T11:43:26.638Z,15.02
2017-04-15T11:44:30.122Z,17.23
2017-04-15T11:45:33.689Z,16.40
2017-04-15T11:46:37.399Z,18.33
2017-04-15T11:47:41.344Z,17.10
2017-04-15T11:48:45.499Z,15.48
2017-04-15T11:49:49.236Z,14.60
2017-04-15T11:50:53.001Z,16.30
2017-04-15T11:51:57.503Z,15.07
2017-04-15T11:53:01.000Z,14.10
2017-04-15T11:54:05.044Z,13.25
2017-04-15T11:55:09.801Z,11.92
2017-04-15T11:56:13.374Z,14.35
2017-04-15T11:57:18.073Z,14.77
2017-04-15T11:58:21.677Z,12.07
2017-04-15T11:59:25.737Z,13.07
2017-04-15T12:00:29.661Z,13.95
2017-04-15T12:01:33.638Z,13.60
2017-04-15T12:02:37.738Z,14.42
2017-04-15T12:03:41.217Z,13.87
2017-04-15T12:04:44.813Z,13.10
2017-04-15T12:05:48.713Z,14.48
2017-04-15T12:06:52.282Z,11.27
2017-04-15T12:07:56.014Z,9.38
2017-04-15T12:09:00.799Z,14.38
2017-04-15T12:10:04.347Z,19.63
2017-04-15T12:11:07.970Z,22.45
2017-04-15T12:12:11.848Z,23.58
2017-04-15T12:13:16.503Z,26.03
2017-04-15T12:14:20.288Z,19.92
2017-04-15T12:15:24.012Z,24.20
2017-04-15T12:16:27.879Z,27.73
2017-04-15T12:17:31.878Z,27.72
2017-04-15T12:18:36.040Z,34.03
2017-04-15T12:19:39.955Z,32.17
2017-04-15T12:20:43.643Z,35.32
2017-04-15T12:21:47.279Z,33.75
2017-04-15T12:22:51.164Z,32.72
2017-04-15T12:23:55.050Z,38.83
2017-04-15T12:24:58.523Z,39.17
2017-04-15T12:26:02.294Z,39.47
2017-04-15T12:27:06.901Z,38.00
2017-04-15T12:28:10.608Z,35.57
2017-04-15T12:29:15.367Z,33.65
2017-04-15T12:30:19.224Z,39.05
2017-04-15T12:31:23.031Z,21.17
2017-04-15T12:32:27.164Z,33.55
2017-04-15T12:33:31.111Z,31.80
2017-04-15T12:34:35.685Z,31.97
2017-04-15T12:35:39.617Z,26.35
2017-04-15T12:36:43.328Z,29.53
2017-04-15T12:37:48.033Z,31.87
2017-04-15T12:38:51.859Z,17.93
2017-04-15T12:39:55.965Z,18.12
2017-04-15T12:40:59.705Z,17.17
2017-04-15T12:42:04.898Z,26.02
2017-04-15T12:43:08.525Z,27.52
2017-04-15T12:44:12.380Z,23.95
2017-04-15T12:45:16.262Z,17.07
2017-04-15T12:46:19.930Z,14.87
2017-04-15T12:47:23.871Z,19.87
2017-04-15T12:48:28.086Z,19.58
2017-04-15T12:49:31.822Z,22.75
2017-04-15T12:50:35.829Z,18.08
2017-04-15T12:51:39.834Z,18.35
2017-04-15T12:52:44.438Z,18.73
2017-04-15T12:53:48.177Z,19.05
2017-04-15T12:54:52.150Z,21.80
2017-04-15T12:55:56.239Z,20.92
2017-04-15T12:56:59.816Z,21.73
2017-04-15T12:58:03.595Z,25.15
2017-04-15T12:59:07.287Z,28.53
2017-04-15T13:00:11.264Z,28.15
2017-04-15T13:01:15.041Z,22.60
2017-04-15T13:02:18.833Z,25.65
2017-04-15T13:03:22.964Z,26.93
2017-04-15T13:04:26.963Z,24.32
2017-04-15T13:05:30.797Z,18.32
2017-04-15T13:06:34.259Z,23.55
2017-04-15T13:07:38.099Z,17.35
2017-04-15T13:08:41.895Z,17.28
2017-04-15T13:09:45.376Z,15.78
2017-04-15T13:10:49.192Z,16.58
2017-04-15T13:11:52.980Z,15.77
2017-04-15T13:12:56.784Z,15.50
2017-04-15T13:14:00.679Z,14.37
2017-04-15T13:15:04.025Z,13.78
2017-04-15T13:16:07.882Z,14.03
2017-04-15T13:17:11.761Z,12.68
2017-04-15T13:18:16.586Z,13.30
2017-04-15T13:19:20.388Z,16.00
2017-04-15T13:20:24.254Z,14.55
2017-04-15T13:21:28.226Z,14.97
2017-04-15T13:22:32.193Z,15.08
2017-04-15T13:23:37.590Z,15.57
2017-04-15T13:24:44.597Z,12.47
2017-04-15T13:25:48.582Z,13.78
2017-04-15T13:26:52.364Z,10.50
2017-04-15T13:27:56.162Z,14.53
2017-04-15T13:29:00.162Z,13.33
2017-04-15T13:30:03.762Z,13.53
2017-04-15T13:31:07.636Z,14.05
2017-04-15T13:32:11.533Z,15.00
2017-04-15T13:33:15.569Z,14.55
2017-04-15T13:34:19.534Z,15.53
2017-04-15T13:35:25.329Z,13.62
2017-04-15T13:36:29.210Z,16.08
2017-04-15T13:37:32.818Z,18.13
2017-04-15T13:38:37.041Z,17.70
2017-04-15T13:39:41.119Z,17.97
2017-04-15T13:40:44.694Z,20.50
2017-04-15T13:41:48.224Z,21.60
2017-04-15T13:42:52.182Z,21.57
2017-04-15T13:43:57.032Z,23.53
2017-04-15T13:45:00.562Z,24.77
2017-04-15T13:46:04.015Z,28.57
2017-04-15T13:47:07.439Z,28.60
2017-04-15T13:48:11.343Z,27.53
2017-04-15T13:49:14.895Z,27.12
2017-04-15T13:50:18.877Z,19.90
2017-04-15T13:51:23.090Z,17.82
2017-04-15T13:52:27.243Z,22.80
2017-04-15T13:53:31.131Z,23.18
2017-04-15T13:54:34.659Z,24.85
2017-04-15T13:55:38.170Z,25.15
2017-04-15T13:56:42.093Z,26.35
2017-04-15T13:57:45.545Z,20.50
2017-04-15T13:58:49.262Z,17.02
2017-04-15T13:59:53.183Z,17.63
2017-04-15T14:00:56.898Z,22.85
2017-04-15T14:02:01.076Z,26.47